createdAt,value
2023-02-25T00:00:24.517Z,3.33
2023-02-25T00:05:43.506Z,3.50
2023-02-25T00:08:10.139Z,3.43
2023-02-25T00:11:11.514Z,3.57
2023-02-25T00:13:40.685Z,3.30
2023-02-25T00:16:07.975Z,4.03
2023-02-25T00:18:34.757Z,3.60
2023-02-25T00:21:06.126Z,3.37
2023-02-25T00:23:33.084Z,4.00
2023-02-25T00:26:05.496Z,3.43
2023-02-25T00:28:33.418Z,3.90
2023-02-25T00:31:00.133Z,3.53
2023-02-25T00:33:26.902Z,2.97
2023-02-25T00:35:56.147Z,3.03
2023-02-25T00:38:22.892Z,3.80
2023-02-25T00:40:49.471Z,4.37
2023-02-25T00:43:16.095Z,4.20
2023-02-25T00:45:42.761Z,3.83
2023-02-25T00:48:09.312Z,3.47
2023-02-25T00:53:05.564Z,3.13
2023-02-25T00:55:33.508Z,3.83
2023-02-25T00:58:03.626Z,2.87
2023-02-25T01:00:35.958Z,3.10
2023-02-25T01:03:09.721Z,3.03
2023-02-25T01:05:41.687Z,2.83
2023-02-25T01:08:08.383Z,2.30
2023-02-25T01:10:34.910Z,2.57
2023-02-25T01:13:01.456Z,2.97
2023-02-25T01:15:30.606Z,3.00
2023-02-25T01:17:57.124Z,2.57
2023-02-25T01:20:24.264Z,3.10
2023-02-25T01:22:50.808Z,2.90
2023-02-25T01:25:18.519Z,3.20
2023-02-25T01:27:45.035Z,3.50
2023-02-25T01:30:12.237Z,3.00
2023-02-25T01:32:38.916Z,3.10
2023-02-25T01:35:06.919Z,2.73
2023-02-25T01:37:33.494Z,3.00
2023-02-25T01:40:00.053Z,3.20
2023-02-25T01:42:26.812Z,2.90
2023-02-25T01:45:17.888Z,3.00
2023-02-25T01:47:52.178Z,3.10
2023-02-25T01:50:21.871Z,3.30
2023-02-25T01:52:48.832Z,2.90
2023-02-25T01:55:15.864Z,3.30
2023-02-25T01:57:42.431Z,3.33
2023-02-25T02:00:16.529Z,2.50
2023-02-25T02:02:47.726Z,3.50
2023-02-25T02:05:15.250Z,2.73
2023-02-25T02:07:41.762Z,3.20
2023-02-25T02:10:11.172Z,2.90
2023-02-25T02:12:42.292Z,3.37
2023-02-25T02:15:12.674Z,2.97
2023-02-25T02:17:49.660Z,3.00
2023-02-25T02:20:21.440Z,3.70
2023-02-25T02:23:16.738Z,3.13
2023-02-25T02:25:58.507Z,3.30
2023-02-25T02:28:55.775Z,2.93
2023-02-25T02:31:28.472Z,2.63
2023-02-25T02:34:19.591Z,2.80
2023-02-25T02:37:01.324Z,2.60
2023-02-25T02:39:58.472Z,4.40
2023-02-25T02:42:43.784Z,4.00
2023-02-25T02:45:35.277Z,2.90
2023-02-25T02:48:09.985Z,3.70
2023-02-25T02:50:40.954Z,3.60
2023-02-25T02:53:14.535Z,2.50
2023-02-25T02:55:46.342Z,3.27
2023-02-25T02:58:25.323Z,3.47
2023-02-25T03:00:58.377Z,3.00
2023-02-25T03:03:36.496Z,3.43
2023-02-25T03:06:07.472Z,3.17
2023-02-25T03:08:40.397Z,3.40
2023-02-25T03:11:07.006Z,3.27
2023-02-25T03:13:33.541Z,3.10
2023-02-25T03:16:04.254Z,3.30
2023-02-25T03:18:39.384Z,3.20
2023-02-25T03:21:15.003Z,3.40
2023-02-25T03:23:46.474Z,4.23
2023-02-25T03:26:18.740Z,3.07
2023-02-25T03:28:46.276Z,3.40
2023-02-25T03:31:12.780Z,3.30
2023-02-25T03:33:49.019Z,3.37
2023-02-25T03:36:44.133Z,3.63
2023-02-25T03:39:26.892Z,3.67
2023-02-25T03:41:56.430Z,3.23
2023-02-25T03:44:30.447Z,2.83
2023-02-25T03:46:58.839Z,3.17
2023-02-25T03:49:43.180Z,3.00
2023-02-25T03:52:17.073Z,2.93
2023-02-25T03:54:43.680Z,2.97
2023-02-25T03:57:10.320Z,2.60
2023-02-25T03:59:37.110Z,2.93
2023-02-25T04:02:03.785Z,3.00
2023-02-25T04:04:32.884Z,2.90
2023-02-25T04:06:59.850Z,3.50
2023-02-25T04:09:26.784Z,3.27
2023-02-25T04:11:57.132Z,2.50
2023-02-25T04:14:24.577Z,2.73
2023-02-25T04:16:51.230Z,2.93
2023-02-25T04:19:18.786Z,2.87
2023-02-25T04:21:45.295Z,3.33
2023-02-25T04:24:11.864Z,2.37
2023-02-25T04:26:38.404Z,2.73
2023-02-25T04:29:05.084Z,2.50
2023-02-25T04:31:31.989Z,2.53
2023-02-25T04:33:58.625Z,3.37
2023-02-25T04:36:31.396Z,2.83
2023-02-25T04:39:00.588Z,2.40
2023-02-25T04:41:33.160Z,3.27
2023-02-25T04:44:00.689Z,3.10
2023-02-25T04:46:27.419Z,2.87
2023-02-25T04:48:54.206Z,2.40
2023-02-25T04:51:21.278Z,2.53
2023-02-25T04:53:48.396Z,2.40
2023-02-25T04:56:15.294Z,2.73
2023-02-25T04:58:41.904Z,3.33
2023-02-25T05:01:12.375Z,3.07
2023-02-25T05:03:39.292Z,3.00
2023-02-25T05:06:06.774Z,2.50
2023-02-25T05:08:34.246Z,3.00
2023-02-25T05:11:01.932Z,3.40
2023-02-25T05:13:29.197Z,3.03
2023-02-25T05:16:10.952Z,3.73
2023-02-25T05:18:42.277Z,3.00
2023-02-25T05:21:12.306Z,3.47
2023-02-25T05:23:40.064Z,2.70
2023-02-25T05:26:07.009Z,3.07
2023-02-25T05:28:33.880Z,3.80
2023-02-25T05:31:00.798Z,3.00
2023-02-25T05:33:27.595Z,2.90
2023-02-25T05:35:54.127Z,2.90
2023-02-25T05:38:20.676Z,2.93
2023-02-25T05:40:47.756Z,3.33
2023-02-25T05:43:14.284Z,2.80
2023-02-25T05:45:40.866Z,2.93
2023-02-25T05:48:07.887Z,2.97
2023-02-25T05:50:41.879Z,2.97
2023-02-25T05:53:09.870Z,3.10
2023-02-25T05:55:41.814Z,3.53
2023-02-25T05:58:08.604Z,2.63
2023-02-25T06:00:36.298Z,3.10
2023-02-25T06:03:02.935Z,3.10
2023-02-25T06:05:32.298Z,3.33
2023-02-25T06:07:59.107Z,4.13
2023-02-25T06:10:27.611Z,3.80
2023-02-25T06:12:54.167Z,3.60
2023-02-25T06:15:20.735Z,3.40
2023-02-25T06:17:47.270Z,3.90
2023-02-25T06:20:16.591Z,3.13
2023-02-25T06:22:43.649Z,3.00
2023-02-25T06:25:10.186Z,2.80
2023-02-25T06:27:37.142Z,3.17
2023-02-25T06:30:04.895Z,2.83
2023-02-25T06:32:31.685Z,3.13
2023-02-25T06:34:58.426Z,3.97
2023-02-25T06:37:25.165Z,3.70
2023-02-25T06:39:53.167Z,3.23
2023-02-25T06:42:20.266Z,3.50
2023-02-25T06:44:46.835Z,3.00
2023-02-25T06:47:13.342Z,3.27
2023-02-25T06:49:40.202Z,3.40
2023-02-25T06:52:06.788Z,3.83
2023-02-25T06:54:33.355Z,3.80
2023-02-25T06:57:00.866Z,4.20
2023-02-25T06:59:27.505Z,2.93
2023-02-25T07:01:54.192Z,3.20
2023-02-25T07:04:20.847Z,3.73
2023-02-25T07:06:47.471Z,3.40
2023-02-25T07:09:14.017Z,3.17
2023-02-25T07:11:40.638Z,3.67
2023-02-25T07:14:07.356Z,3.40
2023-02-25T07:16:34.686Z,2.93
2023-02-25T07:19:02.451Z,3.60
2023-02-25T07:21:31.055Z,3.37
2023-02-25T07:23:58.793Z,2.93
2023-02-25T07:26:43.045Z,3.57
2023-02-25T07:29:09.793Z,2.60
2023-02-25T07:31:36.399Z,3.70
2023-02-25T07:34:08.270Z,3.50
2023-02-25T07:36:38.513Z,4.60
2023-02-25T07:39:06.800Z,3.47
2023-02-25T07:41:36.053Z,4.00
2023-02-25T07:44:05.108Z,3.50
2023-02-25T07:46:32.604Z,4.20
2023-02-25T07:48:59.867Z,2.93
2023-02-25T07:51:27.117Z,3.07
2023-02-25T07:53:58.521Z,3.90
2023-02-25T07:56:28.027Z,2.97
2023-02-25T07:58:54.696Z,3.50
2023-02-25T08:01:27.883Z,3.77
2023-02-25T08:03:57.494Z,3.70
2023-02-25T08:06:24.532Z,4.50
2023-02-25T08:08:54.776Z,3.13
2023-02-25T08:11:23.527Z,2.97
2023-02-25T08:13:50.746Z,3.60
2023-02-25T08:16:20.788Z,3.73
2023-02-25T08:18:48.130Z,3.47
2023-02-25T08:21:18.574Z,3.10
2023-02-25T08:23:45.402Z,3.53
2023-02-25T08:26:17.541Z,3.40
2023-02-25T08:28:44.842Z,3.03
2023-02-25T08:31:15.121Z,3.47
2023-02-25T08:33:43.790Z,3.40
2023-02-25T08:36:26.023Z,3.57
2023-02-25T08:38:59.512Z,2.77
2023-02-25T08:41:29.536Z,3.10
2023-02-25T08:43:58.277Z,3.50
2023-02-25T08:46:27.700Z,3.77
2023-02-25T08:48:54.978Z,3.40
2023-02-25T08:51:27.756Z,3.77
2023-02-25T08:53:54.393Z,3.30
2023-02-25T08:56:21.327Z,3.00
2023-02-25T08:58:47.933Z,3.03
2023-02-25T09:01:16.912Z,2.87
2023-02-25T09:03:53.819Z,3.10
2023-02-25T09:06:27.943Z,3.23
2023-02-25T09:08:56.343Z,3.27
2023-02-25T09:11:26.423Z,2.83
2023-02-25T09:13:54.394Z,3.13
2023-02-25T09:16:21.355Z,3.17
2023-02-25T09:18:49.003Z,2.90
2023-02-25T09:21:15.938Z,3.30
2023-02-25T09:23:42.975Z,2.67
2023-02-25T09:26:10.056Z,1.70
2023-02-25T09:28:36.738Z,2.00
2023-02-25T09:31:04.147Z,2.27
2023-02-25T09:33:32.145Z,3.10
2023-02-25T09:36:08.651Z,2.70
2023-02-25T09:38:36.903Z,3.23
2023-02-25T09:41:04.744Z,3.40
2023-02-25T09:43:40.047Z,4.33
2023-02-25T09:46:14.113Z,4.33
2023-02-25T09:48:59.846Z,5.17
2023-02-25T09:51:31.567Z,2.93
2023-02-25T09:54:16.726Z,3.00
2023-02-25T09:56:45.821Z,1.93
2023-02-25T09:59:21.576Z,2.07
2023-02-25T10:01:58.642Z,2.13
2023-02-25T10:04:37.812Z,1.70
2023-02-25T10:07:15.871Z,1.20
2023-02-25T10:09:54.148Z,1.60
2023-02-25T10:12:45.871Z,1.10
2023-02-25T10:15:27.732Z,1.40
2023-02-25T10:18:08.352Z,0.93
2023-02-25T10:20:39.242Z,1.20
2023-02-25T10:23:27.716Z,1.77
2023-02-25T10:26:09.283Z,1.57
2023-02-25T10:28:36.068Z,1.80
2023-02-25T10:31:10.031Z,1.60
2023-02-25T10:33:40.894Z,1.40
2023-02-25T10:36:15.634Z,1.47
2023-02-25T10:38:48.754Z,1.40
2023-02-25T10:41:16.919Z,1.87
2023-02-25T10:43:44.740Z,1.93
2023-02-25T10:46:23.226Z,2.23
2023-02-25T10:49:16.319Z,1.93
2023-02-25T10:51:56.941Z,1.97
2023-02-25T10:54:24.885Z,2.93
2023-02-25T10:56:52.738Z,3.20
2023-02-25T10:59:31.325Z,2.17
2023-02-25T11:02:00.231Z,2.80
2023-02-25T11:04:37.553Z,2.43
2023-02-25T11:07:38.195Z,1.87
2023-02-25T11:10:15.218Z,1.83
2023-02-25T11:12:49.199Z,1.80
2023-02-25T11:15:37.845Z,1.53
2023-02-25T11:18:23.903Z,1.80
2023-02-25T11:20:59.493Z,1.70
2023-02-25T11:23:37.906Z,1.60
2023-02-25T11:26:06.885Z,1.60
2023-02-25T11:28:39.788Z,1.70
2023-02-25T11:31:19.158Z,1.50
2023-02-25T11:33:57.500Z,2.30
2023-02-25T11:36:30.798Z,1.80
2023-02-25T11:39:16.584Z,1.60
2023-02-25T11:41:45.281Z,1.53
2023-02-25T11:44:30.190Z,1.30
2023-02-25T11:47:20.452Z,1.90
2023-02-25T11:49:51.480Z,1.20
2023-02-25T11:52:17.940Z,1.77
2023-02-25T11:55:12.733Z,1.80
2023-02-25T11:58:03.997Z,2.17
2023-02-25T12:00:40.155Z,2.40
2023-02-25T12:03:40.413Z,1.80
2023-02-25T12:06:21.662Z,1.83
2023-02-25T12:09:10.373Z,1.87
2023-02-25T12:11:53.334Z,1.87
2023-02-25T12:14:44.981Z,1.60
2023-02-25T12:17:30.423Z,1.60
2023-02-25T12:20:50.402Z,1.70
2023-02-25T12:23:45.032Z,2.17
2023-02-25T12:26:38.247Z,2.53
2023-02-25T12:29:32.288Z,1.60
2023-02-25T12:32:26.333Z,1.63
2023-02-25T12:35:15.469Z,2.17
2023-02-25T12:37:51.446Z,1.73
2023-02-25T12:40:41.136Z,2.07
2023-02-25T12:43:41.787Z,1.83
2023-02-25T12:46:33.155Z,1.53
2023-02-25T12:49:08.602Z,1.47
2023-02-25T12:51:44.222Z,2.10
2023-02-25T12:54:26.122Z,1.70
2023-02-25T12:57:18.870Z,1.83
2023-02-25T12:59:57.743Z,1.60
2023-02-25T13:02:36.359Z,1.80
2023-02-25T13:05:25.866Z,2.20
2023-02-25T13:07:52.383Z,1.57
2023-02-25T13:10:32.430Z,1.70
2023-02-25T13:13:12.812Z,1.97
2023-02-25T13:16:10.168Z,1.80
2023-02-25T13:18:55.593Z,1.70
2023-02-25T13:21:28.188Z,1.77
2023-02-25T13:24:06.241Z,1.73
2023-02-25T13:27:03.806Z,1.43
2023-02-25T13:29:50.307Z,2.00
2023-02-25T13:32:27.311Z,1.80
2023-02-25T13:35:14.858Z,1.90
2023-02-25T13:38:02.210Z,1.63
2023-02-25T13:40:51.504Z,1.53
2023-02-25T13:43:48.999Z,1.30
2023-02-25T13:46:56.555Z,1.40
2023-02-25T13:49:38.465Z,1.50
2023-02-25T13:52:25.523Z,1.30
2023-02-25T13:55:16.795Z,1.53
2023-02-25T13:58:07.551Z,1.83
2023-02-25T14:00:58.972Z,1.10
2023-02-25T14:03:28.541Z,1.57
2023-02-25T14:06:23.546Z,1.13
2023-02-25T14:09:08.510Z,1.27
2023-02-25T14:11:51.351Z,1.30
2023-02-25T14:14:42.370Z,1.20
2023-02-25T14:17:28.427Z,1.27
2023-02-25T14:20:11.766Z,1.47
2023-02-25T14:22:50.629Z,1.33
2023-02-25T14:25:36.175Z,1.57
2023-02-25T14:28:36.854Z,0.73
2023-02-25T14:31:42.013Z,0.90
2023-02-25T14:34:36.398Z,1.33
2023-02-25T14:37:40.718Z,1.13
2023-02-25T14:40:30.567Z,0.93
2023-02-25T14:43:35.157Z,1.00
2023-02-25T14:46:29.544Z,1.30
2023-02-25T14:49:15.137Z,1.23
2023-02-25T14:52:16.641Z,0.90
2023-02-25T14:54:52.251Z,1.40
2023-02-25T14:57:40.573Z,1.50
2023-02-25T15:00:43.579Z,1.27
2023-02-25T15:03:31.480Z,1.00
2023-02-25T15:06:23.713Z,1.33
2023-02-25T15:09:02.324Z,1.10
2023-02-25T15:11:31.810Z,1.03
2023-02-25T15:14:08.106Z,1.07
2023-02-25T15:16:41.432Z,1.23
2023-02-25T15:19:30.464Z,1.10
2023-02-25T15:22:20.880Z,1.20
2023-02-25T15:24:48.534Z,1.50
2023-02-25T15:27:36.710Z,1.17
2023-02-25T15:30:08.468Z,1.43
2023-02-25T15:32:47.424Z,0.80
2023-02-25T15:35:21.786Z,1.27
2023-02-25T15:37:51.120Z,1.40
2023-02-25T15:40:17.656Z,1.30
2023-02-25T15:42:48.781Z,1.43
2023-02-25T15:45:27.881Z,1.13
2023-02-25T15:48:12.645Z,1.37
2023-02-25T15:50:47.914Z,1.30
2023-02-25T15:53:21.229Z,1.10
2023-02-25T15:55:49.308Z,1.20
2023-02-25T15:58:24.778Z,1.40
2023-02-25T16:00:56.297Z,1.20
2023-02-25T16:03:39.434Z,1.30
2023-02-25T16:06:12.594Z,1.13
2023-02-25T16:09:00.986Z,1.53
2023-02-25T16:11:36.729Z,1.47
2023-02-25T16:14:15.029Z,1.90
2023-02-25T16:16:48.223Z,1.87
2023-02-25T16:19:19.081Z,1.33
2023-02-25T16:21:51.620Z,1.50
2023-02-25T16:24:19.146Z,1.37
2023-02-25T16:26:45.688Z,1.50
2023-02-25T16:29:35.442Z,1.80
2023-02-25T16:32:17.546Z,1.53
2023-02-25T16:35:04.209Z,1.67
2023-02-25T16:38:13.027Z,1.40
2023-02-25T16:40:42.676Z,1.60
2023-02-25T16:43:16.638Z,1.30
2023-02-25T16:46:02.688Z,1.60
2023-02-25T16:48:34.799Z,1.33
2023-02-25T16:51:10.616Z,1.47
2023-02-25T16:53:43.742Z,1.70
2023-02-25T16:56:23.956Z,1.53
2023-02-25T16:59:17.385Z,1.80
2023-02-25T17:01:53.333Z,1.80
2023-02-25T17:04:24.159Z,1.70
2023-02-25T17:07:14.931Z,1.93
2023-02-25T17:10:14.220Z,1.40
2023-02-25T17:12:45.896Z,1.77
2023-02-25T17:15:24.997Z,1.60
2023-02-25T17:18:24.415Z,1.30
2023-02-25T17:21:08.363Z,1.53
2023-02-25T17:23:41.198Z,1.70
2023-02-25T17:26:11.556Z,1.40
2023-02-25T17:28:44.051Z,1.63
2023-02-25T17:31:18.494Z,1.70
2023-02-25T17:33:55.658Z,1.93
2023-02-25T17:36:41.099Z,1.80
2023-02-25T17:39:19.592Z,1.80
2023-02-25T17:41:47.321Z,2.10
2023-02-25T17:44:42.682Z,2.10
2023-02-25T17:47:12.913Z,2.00
2023-02-25T17:49:39.768Z,1.83
2023-02-25T17:52:16.693Z,1.73
2023-02-25T17:54:47.873Z,1.57
2023-02-25T17:57:18.729Z,1.60
2023-02-25T18:00:09.094Z,1.80
2023-02-25T18:02:41.581Z,2.13
2023-02-25T18:05:14.259Z,1.97
2023-02-25T18:07:47.432Z,1.87
2023-02-25T18:10:23.080Z,1.93
2023-02-25T18:12:50.714Z,1.87
2023-02-25T18:15:22.150Z,1.97
2023-02-25T18:17:54.430Z,1.77
2023-02-25T18:20:36.479Z,1.73
2023-02-25T18:23:15.349Z,1.60
2023-02-25T18:25:45.002Z,1.60
2023-02-25T18:28:21.729Z,1.53
2023-02-25T18:30:50.195Z,1.90
2023-02-25T18:33:19.023Z,2.23
2023-02-25T18:35:47.216Z,1.90
2023-02-25T18:38:21.115Z,2.00
2023-02-25T18:40:49.129Z,1.97
2023-02-25T18:43:22.514Z,2.07
2023-02-25T18:45:49.126Z,1.73
2023-02-25T18:48:16.111Z,1.70
2023-02-25T18:50:44.657Z,2.87
2023-02-25T18:53:15.580Z,2.10
2023-02-25T18:55:44.937Z,2.60
2023-02-25T18:58:18.645Z,2.20
2023-02-25T19:00:48.819Z,2.10
2023-02-25T19:03:25.562Z,2.20
2023-02-25T19:05:52.449Z,1.83
2023-02-25T19:08:19.086Z,2.20
2023-02-25T19:10:45.829Z,2.10
2023-02-25T19:13:37.911Z,2.93
2023-02-25T19:16:05.535Z,2.60
2023-02-25T19:18:32.497Z,2.07
2023-02-25T19:20:59.038Z,2.33
2023-02-25T19:23:25.845Z,2.47
2023-02-25T19:26:00.149Z,2.53
2023-02-25T19:28:27.161Z,2.40
2023-02-25T19:30:53.773Z,2.07
2023-02-25T19:33:20.409Z,2.20
2023-02-25T19:35:46.985Z,2.20
2023-02-25T19:38:16.259Z,2.00
2023-02-25T19:40:46.523Z,3.20
2023-02-25T19:43:13.425Z,2.47
2023-02-25T19:45:40.859Z,2.20
2023-02-25T19:48:08.152Z,2.60
2023-02-25T19:50:35.550Z,2.40
2023-02-25T19:53:05.575Z,2.00
2023-02-25T19:55:33.380Z,2.23
2023-02-25T19:58:00.057Z,2.60
2023-02-25T20:00:26.701Z,2.43
2023-02-25T20:02:56.348Z,2.30
2023-02-25T20:05:25.620Z,2.63
2023-02-25T20:07:52.586Z,2.60
2023-02-25T20:10:19.619Z,2.43
2023-02-25T20:12:47.079Z,2.70
2023-02-25T20:15:15.483Z,2.73
2023-02-25T20:17:46.341Z,1.90
2023-02-25T20:20:14.610Z,2.73
2023-02-25T20:22:42.908Z,2.80
2023-02-25T20:25:10.290Z,2.30
2023-02-25T20:27:39.281Z,2.27
2023-02-25T20:30:07.007Z,2.37
2023-02-25T20:32:34.229Z,2.73
2023-02-25T20:35:01.112Z,2.53
2023-02-25T20:37:33.664Z,2.40
2023-02-25T20:40:00.595Z,2.43
2023-02-25T20:42:31.462Z,2.93
2023-02-25T20:44:59.338Z,3.17
2023-02-25T20:47:36.563Z,2.77
2023-02-25T20:50:07.058Z,2.33
2023-02-25T20:52:34.242Z,2.50
2023-02-25T20:55:00.837Z,2.70
2023-02-25T20:57:27.573Z,2.40
2023-02-25T20:59:54.599Z,2.47
2023-02-25T21:02:21.754Z,2.27
2023-02-25T21:04:48.657Z,2.37
2023-02-25T21:07:15.272Z,1.87
2023-02-25T21:09:41.935Z,2.30
2023-02-25T21:12:08.784Z,2.27
2023-02-25T21:14:35.476Z,2.10
2023-02-25T21:17:02.041Z,2.33
2023-02-25T21:19:28.579Z,2.13
2023-02-25T21:21:55.445Z,2.57
2023-02-25T21:24:22.035Z,2.20
2023-02-25T21:26:48.624Z,2.20
2023-02-25T21:29:16.010Z,2.20
2023-02-25T21:31:43.013Z,2.10
2023-02-25T21:34:13.022Z,2.53
2023-02-25T21:36:40.472Z,1.70
2023-02-25T21:39:09.222Z,1.70
2023-02-25T21:41:37.219Z,2.83
2023-02-25T21:44:04.270Z,2.17
2023-02-25T21:46:30.902Z,2.30
2023-02-25T21:48:57.517Z,2.07
2023-02-25T21:51:26.346Z,1.40
2023-02-25T21:53:58.115Z,2.07
2023-02-25T21:56:26.067Z,1.77
2023-02-25T21:58:58.268Z,1.90
2023-02-25T22:01:28.847Z,1.73
2023-02-25T22:03:55.667Z,2.20
2023-02-25T22:06:26.132Z,1.70
2023-02-25T22:08:53.747Z,1.60
2023-02-25T22:11:23.980Z,2.17
2023-02-25T22:13:51.015Z,2.00
2023-02-25T22:16:17.941Z,1.63
2023-02-25T22:18:44.956Z,1.90
2023-02-25T22:21:16.988Z,1.83
2023-02-25T22:23:43.619Z,1.60
2023-02-25T22:26:15.433Z,1.50
2023-02-25T22:28:43.460Z,1.80
2023-02-25T22:31:14.862Z,1.40
2023-02-25T22:33:41.689Z,1.60
2023-02-25T22:36:09.468Z,2.20
2023-02-25T22:38:38.548Z,2.80
2023-02-25T22:41:10.793Z,2.00
2023-02-25T22:43:37.933Z,1.83
2023-02-25T22:46:09.510Z,1.83
2023-02-25T22:48:38.573Z,1.67
2023-02-25T22:51:06.910Z,1.80
2023-02-25T22:53:33.508Z,1.70
2023-02-25T22:56:06.729Z,2.07
2023-02-25T22:58:33.691Z,2.03
2023-02-25T23:01:00.436Z,1.67
2023-02-25T23:03:27.157Z,1.80
2023-02-25T23:05:54.875Z,1.77
2023-02-25T23:08:22.525Z,1.70
2023-02-25T23:10:49.421Z,2.07
2023-02-25T23:13:18.939Z,2.37
2023-02-25T23:15:49.142Z,1.30
2023-02-25T23:18:16.179Z,2.07
2023-02-25T23:20:43.585Z,1.50
2023-02-25T23:23:18.014Z,1.60
2023-02-25T23:25:54.591Z,1.77
2023-02-25T23:28:21.205Z,1.83
2023-02-25T23:30:47.901Z,1.60
2023-02-25T23:33:14.531Z,1.80
2023-02-25T23:35:42.128Z,1.67
2023-02-25T23:38:09.572Z,1.77
2023-02-25T23:40:36.169Z,2.13
2023-02-25T23:43:02.774Z,1.83
2023-02-25T23:45:32.803Z,1.93
2023-02-25T23:47:59.409Z,2.10
2023-02-25T23:50:27.063Z,2.00
2023-02-25T23:52:54.000Z,1.70
2023-02-25T23:55:21.080Z,1.70
2023-02-25T23:57:50.069Z,1.93
